createdAt,value
2019-05-02T14:23:55.555Z,48.47
2019-05-02T14:24:54.378Z,49.05
2019-05-02T14:25:54.565Z,49.43
2019-05-02T14:26:55.073Z,49.71
2019-05-02T14:27:56.855Z,49.52
2019-05-02T14:28:53.668Z,49.71
2019-05-02T14:29:54.992Z,50.29
2019-05-02T14:30:54.969Z,50.84
2019-05-02T14:31:54.407Z,51.03
2019-05-02T14:32:54.806Z,50.74
2019-05-02T14:33:54.811Z,51.61
2019-05-02T14:34:54.931Z,52.28
2019-05-02T14:35:55.038Z,52.47
2019-05-02T14:36:59.301Z,52.56
2019-05-02T14:37:53.198Z,52.37
2019-05-02T14:38:54.920Z,52.95
2019-05-02T14:39:54.910Z,53.04
2019-05-02T14:40:54.464Z,53.04
2019-05-02T14:41:54.985Z,53.04
2019-05-02T14:42:57.683Z,53.71
2019-05-02T14:43:55.691Z,54.07
2019-05-02T14:45:26.363Z,55.02
2019-05-02T14:45:59.953Z,56.27
2019-05-02T14:46:54.778Z,56.65
2019-05-02T14:48:17.087Z,57.32
2019-05-02T14:48:54.775Z,57.61
2019-05-02T14:49:56.601Z,57.9
2019-05-02T14:50:54.501Z,57.7
2019-05-02T14:51:57.088Z,58.09
2019-05-02T14:52:54.113Z,57.99
2019-05-02T14:53:57.199Z,58.09
2019-05-02T14:54:55.696Z,58.28
2019-05-02T14:55:53.195Z,57.9
2019-05-02T14:56:54.631Z,58.44
2019-05-02T14:57:57.006Z,59.3
2019-05-02T14:58:55.125Z,61.12
2019-05-02T15:00:03.229Z,62.08
2019-05-02T15:00:55.238Z,63.13
2019-05-02T15:01:57.693Z,64.34
2019-05-02T15:02:54.347Z,64.72
2019-05-02T15:03:53.067Z,64.53
2019-05-02T15:04:54.789Z,64.82
2019-05-02T15:05:58.921Z,65.11
2019-05-02T15:06:54.904Z,65.68
2019-05-02T15:07:56.700Z,65.97
2019-05-02T15:08:54.900Z,66.44
2019-05-02T15:09:57.100Z,66.63
2019-05-02T15:10:58.433Z,66.06
2019-05-02T15:11:54.758Z,66.25
2019-05-02T15:13:01.788Z,66.44
2019-05-02T15:13:54.889Z,66.54
2019-05-02T15:14:59.992Z,66.44
2019-05-02T15:15:53.050Z,66.63
2019-05-02T15:16:59.444Z,66.35
2019-05-02T15:17:53.125Z,66.06
2019-05-02T15:18:57.813Z,65.68
2019-05-02T15:19:55.005Z,65.3
2019-05-02T15:20:54.561Z,65.48
2019-05-02T15:21:56.576Z,65.87
2019-05-02T15:22:54.797Z,65.68
2019-05-02T15:23:57.952Z,65.97
2019-05-02T15:24:53.902Z,66.54
2019-05-02T15:25:59.129Z,66.54
2019-05-02T15:26:54.853Z,66.92
2019-05-02T15:28:02.399Z,66.63
2019-05-02T15:28:54.513Z,67.11
2019-05-02T15:30:01.764Z,66.92
2019-05-02T15:30:54.762Z,66.54
2019-05-02T15:31:57.858Z,66.44
2019-05-02T15:32:54.588Z,66.54
2019-05-02T15:33:56.194Z,66.35
2019-05-02T15:34:54.897Z,66.16
2019-05-02T15:35:52.823Z,66.06
2019-05-02T15:36:52.776Z,65.2
2019-05-02T15:37:56.516Z,65.33
2019-05-02T15:38:52.778Z,65.52
2019-05-02T15:41:32.680Z,64.95
2019-05-02T15:42:32.257Z,64.95
2019-05-02T15:43:31.763Z,64.47
2019-05-02T15:44:31.705Z,64.85
2019-05-02T15:45:32.024Z,64.09
2019-05-02T15:46:31.856Z,64.53
2019-05-02T15:47:32.016Z,64.62
2019-05-02T15:48:32.333Z,64.34
2019-05-02T15:49:32.111Z,64.82
2019-05-02T15:50:32.599Z,64.72
2019-05-02T15:51:32.756Z,64.72
2019-05-02T15:52:32.615Z,65.39
2019-05-02T15:53:32.443Z,65.2
2019-05-02T15:54:32.159Z,65.39
2019-05-02T15:55:43.483Z,65.39
2019-05-02T15:56:32.382Z,65.58
2019-05-02T15:57:43.508Z,65.01
2019-05-02T15:58:32.444Z,65.11
2019-05-02T15:59:32.394Z,65.58
2019-05-02T16:00:32.179Z,64.53
2019-05-02T16:01:32.083Z,64.25
2019-05-02T16:02:32.064Z,64.05
2019-05-02T16:03:34.277Z,63.57
2019-05-02T16:04:32.032Z,64.15
2019-05-02T16:05:31.984Z,64.09
2019-05-02T16:06:35.896Z,63.8
2019-05-02T16:07:32.592Z,64.28
2019-05-02T16:08:32.546Z,64.09
2019-05-02T16:09:32.863Z,64.18
2019-05-02T16:10:40.109Z,64.37
2019-05-02T16:11:32.178Z,64.37
2019-05-02T16:12:35.986Z,64.53
2019-05-02T16:13:31.801Z,64.66
2019-05-02T16:14:36.787Z,64.95
2019-05-02T16:15:32.300Z,64.28
2019-05-02T16:16:31.999Z,63.96
2019-05-02T16:17:30.865Z,63.89
2019-05-02T16:18:31.709Z,62.9
2019-05-02T16:19:32.877Z,62.08
2019-05-02T16:20:32.343Z,62.24
2019-05-02T16:21:32.978Z,61.47
2019-05-02T16:22:30.854Z,61.57
2019-05-02T16:23:36.080Z,61.57
2019-05-02T16:24:32.082Z,61.47
2019-05-02T16:25:31.978Z,61.79
2019-05-02T16:26:35.195Z,61.98
2019-05-02T16:27:31.556Z,62.46
2019-05-02T16:28:32.378Z,62.9
2019-05-02T16:29:31.869Z,62.04
2019-05-02T16:30:31.903Z,61.85
2019-05-02T16:31:31.475Z,61.09
2019-05-02T16:32:35.614Z,60.99
2019-05-02T16:33:31.895Z,60.99
2019-05-02T16:34:36.297Z,61.09
2019-05-02T16:35:30.748Z,60.99
2019-05-02T16:36:38.672Z,61.28
2019-05-02T16:37:32.375Z,61.38
2019-05-02T16:38:36.211Z,61.47
2019-05-02T16:39:32.199Z,61.09
2019-05-02T16:40:34.954Z,61.85
2019-05-02T16:41:32.400Z,62.24
2019-05-02T16:42:32.676Z,62.68
2019-05-02T16:43:32.319Z,63.1
2019-05-02T16:44:32.219Z,63.57
2019-05-02T16:45:32.625Z,63.73
2019-05-02T16:46:32.260Z,63.73
2019-05-02T16:47:32.442Z,63.64
2019-05-02T16:48:39.456Z,63.07
2019-05-02T16:49:32.164Z,62.68
2019-05-02T16:50:37.816Z,63.07
2019-05-02T16:51:34.787Z,63.45
2019-05-02T16:52:32.558Z,63.64
2019-05-02T16:53:33.493Z,63.83
2019-05-02T16:54:34.416Z,63.83
2019-05-02T16:55:32.533Z,63.93
2019-05-02T16:56:31.611Z,64.12
2019-05-02T16:57:32.719Z,64.31
2019-05-02T16:58:31.885Z,64.69
2019-05-02T16:59:32.345Z,64.4
2019-05-02T17:00:31.990Z,64.5
2019-05-02T17:01:32.660Z,64.65
2019-05-02T17:02:32.415Z,64.75
2019-05-02T17:03:31.593Z,65.42
2019-05-02T17:04:31.881Z,65.36
2019-05-02T17:05:32.210Z,65.04
2019-05-02T17:06:32.427Z,65.42
2019-05-02T17:07:30.522Z,65.71
2019-05-02T17:08:32.711Z,65.8
2019-05-02T17:09:33.511Z,65.42
2019-05-02T17:10:32.173Z,65.61
2019-05-02T17:11:36.982Z,65.52
2019-05-02T17:12:31.800Z,65.61
2019-05-02T17:13:37.945Z,65.61
2019-05-02T17:14:31.715Z,65.8
2019-05-02T17:15:35.224Z,65.71
2019-05-02T17:16:31.544Z,65.61
2019-05-02T17:17:36.005Z,66.19
2019-05-02T17:18:32.497Z,66.66
2019-05-02T17:19:35.782Z,66.47
2019-05-02T17:20:31.909Z,67.05
2019-05-02T17:21:52.703Z,67.05
2019-05-02T17:22:32.245Z,67.24
2019-05-02T17:23:30.438Z,66.85
2019-05-02T17:24:32.165Z,66.66
2019-05-02T17:25:32.089Z,66.85
2019-05-02T17:26:31.739Z,67.05
2019-05-02T17:27:32.441Z,67.05
2019-05-02T17:28:31.702Z,67.24
2019-05-02T17:29:31.722Z,67.52
2019-05-02T17:30:41.046Z,67.81
2019-05-02T17:31:32.167Z,67.62
2019-05-02T17:32:34.006Z,67.91
2019-05-02T17:33:32.292Z,67.62
2019-05-02T17:34:34.977Z,68.19
2019-05-02T17:35:32.417Z,68
2019-05-02T17:36:32.484Z,68.48
2019-05-02T17:37:30.311Z,68.29
2019-05-02T17:38:31.725Z,68.67
2019-05-02T17:39:30.063Z,68.67
2019-05-02T17:40:30.298Z,69.43
2019-05-02T17:41:31.774Z,70.39
2019-05-02T17:42:32.251Z,70.77
2019-05-02T17:43:30.267Z,71.02
2019-05-02T17:44:30.011Z,71.59
2019-05-02T17:45:33.296Z,71.41
2019-05-02T17:46:30.246Z,72.17
2019-05-02T17:47:36.028Z,72.74
2019-05-02T17:48:34.214Z,72.93
2019-05-02T17:49:37.791Z,72.93
2019-05-02T17:50:30.221Z,73.22
2019-05-02T17:51:33.752Z,73.32
2019-05-02T17:52:32.367Z,73.6
2019-05-02T17:53:33.452Z,73.69
2019-05-02T17:54:31.612Z,73.88
2019-05-02T17:55:32.668Z,74.37
2019-05-02T17:56:32.413Z,73.98
2019-05-02T17:57:33.316Z,74.08
2019-05-02T17:58:31.724Z,74.37
2019-05-02T17:59:34.273Z,74.93
2019-05-02T18:00:30.151Z,74.74
2019-05-02T18:01:36.238Z,74.55
2019-05-02T18:02:31.676Z,74.55
2019-05-02T18:03:35.605Z,74.65
2019-05-02T18:04:30.125Z,74.74
2019-05-02T18:05:36.870Z,74.74
2019-05-02T18:06:35.965Z,74.74
2019-05-02T18:07:37.859Z,74.55
2019-05-02T18:08:29.840Z,74.74
2019-05-02T18:09:35.995Z,74.65
2019-05-02T18:10:32.171Z,74.74
2019-05-02T18:11:36.375Z,74.93
2019-05-02T18:12:30.061Z,75.22
2019-05-02T18:13:33.720Z,74.74
2019-05-02T18:14:30.051Z,75.42
2019-05-02T18:15:34.651Z,75.42
2019-05-02T18:16:30.037Z,75.03
2019-05-02T18:17:31.826Z,75.79
2019-05-02T18:18:31.789Z,75.32
2019-05-02T18:19:31.585Z,75.32
2019-05-02T18:20:30.015Z,75.32
2019-05-02T18:21:32.314Z,75.42
2019-05-02T18:22:32.861Z,75.98
2019-05-02T18:23:32.106Z,75.89
2019-05-02T18:24:29.982Z,75.89
2019-05-02T18:25:29.981Z,75.89
2019-05-02T18:26:31.716Z,75.89
2019-05-02T18:27:29.979Z,75.79
2019-05-02T18:28:29.960Z,75.79
2019-05-02T18:29:29.949Z,75.98
2019-05-02T18:30:29.944Z,75.89
2019-05-02T18:31:29.939Z,76.18
2019-05-02T18:32:29.929Z,75.98
2019-05-02T18:33:29.999Z,75.98
2019-05-02T18:34:29.921Z,75.98
2019-05-02T18:35:29.940Z,76.18
2019-05-02T18:36:31.963Z,76.27
2019-05-02T18:37:29.894Z,76.27
2019-05-02T18:38:29.894Z,76.27
2019-05-02T18:39:34.668Z,76.27
2019-05-02T18:40:32.187Z,76.18
2019-05-02T18:41:31.762Z,76.37
2019-05-02T18:42:31.671Z,76.27
2019-05-02T18:43:31.241Z,76.37
2019-05-02T18:44:29.845Z,75.95
2019-05-02T18:45:31.841Z,76.04
2019-05-02T18:46:29.829Z,76.71
2019-05-02T18:47:29.823Z,76.62
2019-05-02T18:48:31.801Z,76.23
2019-05-02T18:49:29.811Z,76.23
2019-05-02T18:50:31.746Z,76.18
2019-05-02T18:51:29.801Z,75.89
2019-05-02T18:52:43.129Z,76.37
2019-05-02T18:53:29.942Z,76.18
2019-05-02T18:54:29.776Z,76.08
2019-05-02T18:55:31.669Z,75.89
2019-05-02T18:56:33.868Z,75.89
2019-05-02T18:57:32.026Z,75.76
2019-05-02T18:58:31.735Z,75.7
2019-05-02T18:59:29.852Z,75.95
2019-05-02T19:00:39.465Z,75.7
2019-05-02T19:01:29.739Z,75.7
2019-05-02T19:02:36.504Z,75.51
2019-05-02T19:03:29.715Z,75.32
2019-05-02T19:04:39.643Z,75.7
2019-05-02T19:05:29.707Z,75.22
2019-05-02T19:06:33.086Z,75.42
2019-05-02T19:07:36.184Z,75.42
2019-05-02T19:08:45.129Z,75.22
2019-05-02T19:09:33.378Z,75.03
2019-05-02T19:10:29.667Z,74.84
2019-05-02T19:11:36.565Z,75.7
2019-05-02T19:12:29.652Z,75.42
2019-05-02T19:13:37.497Z,75.6
2019-05-02T19:14:29.653Z,75.51
2019-05-02T19:15:32.339Z,75.51
2019-05-02T19:16:31.750Z,75.89
2019-05-02T19:17:29.641Z,76.27
2019-05-02T19:18:29.610Z,76.65
2019-05-02T19:19:36.760Z,76.46
2019-05-02T19:20:29.607Z,76.65
2019-05-02T19:21:36.828Z,76.65
2019-05-02T19:22:29.585Z,76.81
2019-05-02T19:23:29.580Z,76.81
2019-05-02T19:24:36.440Z,77
2019-05-02T19:25:29.566Z,77.09
2019-05-02T19:26:32.658Z,77.28
2019-05-02T19:27:29.555Z,77.47
2019-05-02T19:28:34.525Z,77.67
2019-05-02T19:29:31.635Z,77.86
2019-05-02T19:30:29.736Z,77.76
2019-05-02T19:31:29.523Z,77.67
2019-05-02T19:32:32.018Z,78.43
2019-05-02T19:33:29.509Z,79.48
2019-05-02T19:34:29.525Z,80.05
2019-05-02T19:35:29.493Z,81.92
2019-05-02T19:36:32.644Z,83.64
2019-05-02T19:37:31.495Z,84.74
2019-05-02T19:38:29.473Z,86.45
2019-05-02T19:39:29.469Z,87.21
2019-05-02T19:40:31.773Z,88.26
2019-05-02T19:41:29.457Z,90.03
2019-05-02T19:42:29.449Z,91.55
2019-05-02T19:43:29.443Z,92.89
2019-05-02T19:44:34.104Z,94.32
2019-05-02T19:45:29.424Z,94.56
2019-05-02T19:46:38.822Z,96.17
2019-05-02T19:47:31.620Z,96.55
2019-05-02T19:48:32.788Z,97.6
2019-05-02T19:49:29.399Z,99.22
2019-05-02T19:50:40.488Z,99.84
2019-05-02T19:51:31.681Z,99.99
2019-05-02T19:52:38.773Z,99.99
2019-05-02T19:53:29.367Z,99.99
2019-05-02T19:54:39.207Z,99.99
2019-05-02T19:55:31.995Z,99.99
2019-05-02T19:56:32.775Z,99.99
2019-05-02T19:57:29.338Z,99.99
2019-05-02T19:58:29.380Z,99.99
2019-05-02T19:59:32.195Z,99.99
2019-05-02T20:00:29.316Z,99.99
2019-05-02T20:01:29.323Z,99.99
2019-05-02T20:02:29.303Z,99.99
2019-05-02T20:03:29.295Z,99.99
2019-05-02T20:04:29.284Z,99.99
2019-05-02T20:05:29.279Z,99.99
2019-05-02T20:06:29.277Z,99.99
2019-05-02T20:07:29.264Z,99.99
2019-05-02T20:08:29.256Z,99.99
2019-05-02T20:09:29.243Z,99.99
2019-05-02T20:10:29.238Z,99.99
2019-05-02T20:11:32.796Z,99.99
2019-05-02T20:12:29.223Z,99.99
2019-05-02T20:13:32.574Z,99.99
2019-05-02T20:14:29.209Z,99.99
2019-05-02T20:15:32.768Z,99.99
2019-05-02T20:16:29.191Z,99.99
2019-05-02T20:17:29.184Z,99.99
2019-05-02T20:18:34.742Z,99.99
2019-05-02T20:19:31.352Z,99.99
2019-05-02T20:20:29.161Z,99.99
2019-05-02T20:21:32.510Z,99.99
2019-05-02T20:22:29.147Z,99.99
2019-05-02T20:23:35.895Z,99.99
2019-05-02T20:24:29.140Z,99.99
2019-05-02T20:25:37.343Z,99.99
2019-05-02T20:26:29.117Z,99.99
2019-05-02T20:27:32.935Z,99.99
2019-05-02T20:28:29.114Z,99.99
2019-05-02T20:29:29.100Z,99.99
2019-05-02T20:30:29.088Z,99.99
2019-05-02T20:31:29.080Z,99.99
2019-05-02T20:32:29.079Z,99.99
2019-05-02T20:33:29.067Z,99.99
2019-05-02T20:34:29.059Z,99.99
2019-05-02T20:35:29.051Z,99.99
2019-05-02T20:36:29.044Z,99.99
2019-05-02T20:37:29.033Z,99.99
2019-05-02T20:38:29.026Z,99.99
2019-05-02T20:39:28.771Z,99.99
2019-05-02T20:40:29.017Z,99.99
2019-05-02T20:41:29.003Z,99.99
2019-05-02T20:42:28.995Z,99.99
2019-05-02T20:43:28.993Z,99.99
2019-05-02T20:44:28.985Z,99.99
2019-05-02T20:45:29.013Z,99.99
2019-05-02T20:46:28.967Z,99.99
2019-05-02T20:47:28.959Z,99.99
2019-05-02T20:48:28.952Z,99.99
2019-05-02T20:49:28.948Z,99.99
2019-05-02T20:50:28.942Z,99.99
2019-05-02T20:51:28.927Z,99.99
2019-05-02T20:52:28.923Z,99.99
2019-05-02T20:53:34.296Z,99.99
2019-05-02T20:54:28.907Z,99.99
2019-05-02T20:55:28.906Z,99.99
2019-05-02T20:56:28.636Z,99.99
2019-05-02T20:57:28.883Z,99.99
2019-05-02T20:58:28.890Z,99.99
2019-05-02T20:59:28.875Z,99.99
2019-05-02T21:00:28.869Z,99.99
2019-05-02T21:01:28.858Z,99.99
2019-05-02T21:02:28.843Z,99.99
2019-05-02T21:03:28.836Z,99.99
2019-05-02T21:04:28.830Z,99.99
2019-05-02T21:05:28.911Z,99.99
2019-05-02T21:06:43.386Z,99.99
2019-05-02T21:07:28.894Z,99.99
2019-05-02T21:08:28.806Z,99.99
2019-05-02T21:09:28.805Z,99.99
2019-05-02T21:10:28.793Z,99.99
2019-05-02T21:11:28.775Z,99.99
2019-05-02T21:12:28.522Z,99.99
2019-05-02T21:13:28.763Z,99.99
2019-05-02T21:14:28.778Z,99.99
2019-05-02T21:15:28.753Z,99.99
2019-05-02T21:16:28.737Z,99.99
2019-05-02T21:17:28.730Z,99.99
2019-05-02T21:18:28.731Z,99.99
2019-05-02T21:19:28.722Z,99.99
2019-05-02T21:20:28.709Z,99.99
2019-05-02T21:21:28.705Z,99.99
2019-05-02T21:22:28.697Z,99.99
2019-05-02T21:23:35.491Z,99.99
2019-05-02T21:24:28.681Z,99.99
2019-05-02T21:25:28.674Z,99.99
2019-05-02T21:26:28.663Z,99.99
2019-05-02T21:27:28.668Z,99.99
2019-05-02T21:28:28.647Z,99.99
2019-05-02T21:29:28.641Z,99.99
2019-05-02T21:30:28.638Z,99.99
2019-05-02T21:31:28.676Z,99.99
2019-05-02T21:32:28.625Z,99.99
2019-05-02T21:33:28.615Z,99.99
2019-05-02T21:34:28.606Z,99.99
2019-05-02T21:35:28.347Z,99.99
2019-05-02T21:36:28.591Z,99.99
2019-05-02T21:37:28.581Z,99.99
2019-05-02T21:38:28.326Z,99.99
2019-05-02T21:39:28.572Z,99.99
2019-05-02T21:40:28.562Z,99.99
2019-05-02T21:41:28.558Z,99.99
2019-05-02T21:42:28.548Z,99.99
2019-05-02T21:43:28.542Z,99.99
2019-05-02T21:44:28.530Z,99.99
2019-05-02T21:45:28.524Z,99.99
2019-05-02T21:46:28.517Z,99.99
2019-05-02T21:47:28.511Z,99.99
2019-05-02T21:48:28.501Z,99.99
2019-05-02T21:49:28.504Z,99.99
2019-05-02T21:50:28.487Z,99.99
2019-05-02T21:51:28.481Z,99.99
2019-05-02T21:52:28.490Z,99.99
2019-05-02T21:53:28.471Z,99.99
2019-05-02T21:54:28.461Z,99.99
2019-05-02T21:55:28.453Z,99.99
2019-05-02T21:56:28.448Z,99.99
2019-05-02T21:57:28.440Z,99.99
2019-05-02T21:58:28.428Z,99.99
2019-05-02T21:59:28.422Z,99.99
2019-05-02T22:00:28.417Z,99.99
2019-05-02T22:01:28.411Z,99.99
2019-05-02T22:02:28.401Z,99.99
2019-05-02T22:03:28.142Z,99.99
2019-05-02T22:04:28.390Z,99.99
2019-05-02T22:05:28.387Z,99.99
2019-05-02T22:06:28.370Z,99.99
2019-05-02T22:07:28.366Z,99.99
2019-05-02T22:08:28.352Z,99.99
2019-05-02T22:09:28.356Z,99.99
2019-05-02T22:10:28.355Z,99.99
2019-05-02T22:11:28.331Z,99.99
2019-05-02T22:12:28.324Z,99.99
2019-05-02T22:13:28.320Z,99.99
2019-05-02T22:14:28.319Z,99.99
2019-05-02T22:15:28.052Z,99.99
2019-05-02T22:16:28.295Z,99.99
2019-05-02T22:17:28.290Z,99.99
2019-05-02T22:18:28.277Z,99.99
2019-05-02T22:19:28.274Z,99.99
2019-05-02T22:20:28.267Z,99.99
2019-05-02T22:21:28.258Z,99.99
2019-05-02T22:22:28.001Z,99.99
2019-05-02T22:23:28.243Z,99.99
2019-05-02T22:24:28.239Z,99.99
2019-05-02T22:25:28.241Z,99.99
2019-05-02T22:26:28.221Z,99.99
2019-05-02T22:27:28.215Z,99.99
2019-05-02T22:28:28.209Z,99.99
2019-05-02T22:29:28.201Z,99.99
2019-05-02T22:30:28.195Z,99.99
2019-05-02T22:31:28.184Z,99.99
2019-05-02T22:32:28.177Z,99.99
2019-05-02T22:33:28.166Z,99.99
2019-05-02T22:34:28.173Z,99.99
2019-05-02T22:35:28.158Z,99.99
2019-05-02T22:36:28.312Z,99.99
2019-05-02T22:37:28.290Z,99.99
2019-05-02T22:38:28.132Z,99.99
2019-05-02T22:39:28.211Z,99.99
2019-05-02T22:40:28.127Z,99.99
2019-05-02T22:41:28.115Z,99.99
2019-05-02T22:42:27.857Z,99.99
2019-05-02T22:43:28.099Z,99.99
2019-05-02T22:44:28.093Z,99.99
2019-05-02T22:45:27.839Z,99.99
2019-05-02T22:46:28.075Z,99.99
2019-05-02T22:47:28.069Z,99.99
2019-05-02T22:48:28.192Z,99.99
2019-05-02T22:49:28.144Z,99.99
2019-05-02T22:50:28.047Z,99.99
2019-05-02T22:51:28.232Z,99.99
2019-05-02T22:52:28.028Z,99.99
2019-05-02T22:53:28.021Z,99.99
2019-05-02T22:54:33.798Z,99.99
2019-05-02T22:55:28.009Z,99.99
2019-05-02T22:56:28.006Z,99.99
2019-05-02T22:57:28.003Z,99.99
2019-05-02T22:58:27.986Z,99.99
2019-05-02T22:59:27.984Z,99.99
2019-05-02T23:00:27.972Z,99.99
2019-05-02T23:01:27.969Z,99.99
2019-05-02T23:02:27.961Z,99.99
2019-05-02T23:03:27.965Z,99.99
2019-05-02T23:04:27.941Z,99.99
2019-05-02T23:05:27.946Z,99.99
2019-05-02T23:06:27.951Z,99.99
2019-05-02T23:07:27.923Z,99.99
2019-05-02T23:08:27.912Z,99.99
2019-05-02T23:09:27.906Z,99.99
2019-05-02T23:10:27.899Z,99.99
2019-05-02T23:11:27.894Z,99.99
2019-05-02T23:12:27.883Z,99.99
2019-05-02T23:13:27.876Z,99.99
2019-05-02T23:14:27.886Z,99.99
2019-05-02T23:15:27.868Z,99.99
2019-05-02T23:16:27.856Z,99.99
2019-05-02T23:17:27.878Z,99.99
2019-05-02T23:18:27.841Z,99.99
2019-05-02T23:19:27.833Z,99.99
2019-05-02T23:20:27.580Z,99.99
2019-05-02T23:21:27.818Z,99.99
2019-05-02T23:22:27.818Z,99.99
2019-05-02T23:23:27.802Z,99.99
2019-05-02T23:24:39.460Z,99.99
2019-05-02T23:25:27.788Z,99.99
2019-05-02T23:26:27.789Z,99.99
2019-05-02T23:27:27.520Z,99.99
2019-05-02T23:28:27.867Z,99.99
2019-05-02T23:29:27.757Z,99.99
2019-05-02T23:30:27.755Z,99.99
2019-05-02T23:31:27.744Z,99.99
2019-05-02T23:32:27.742Z,99.99
2019-05-02T23:33:27.732Z,99.99
2019-05-02T23:34:27.721Z,99.99
2019-05-02T23:35:27.462Z,99.99
2019-05-02T23:36:27.708Z,99.99
2019-05-02T23:37:27.701Z,99.99
2019-05-02T23:38:27.692Z,99.99
2019-05-02T23:39:27.687Z,99.99
2019-05-02T23:40:27.678Z,99.99
2019-05-02T23:41:27.675Z,99.99
2019-05-02T23:42:27.662Z,99.99
2019-05-02T23:43:27.655Z,99.99
2019-05-02T23:44:27.648Z,99.99
2019-05-02T23:45:27.640Z,99.99
2019-05-02T23:46:27.633Z,99.99
2019-05-02T23:47:27.626Z,99.99
2019-05-02T23:48:27.622Z,99.99
2019-05-02T23:49:27.609Z,99.99
2019-05-02T23:50:27.601Z,99.99
2019-05-02T23:51:27.610Z,99.99
2019-05-02T23:52:27.588Z,99.99
2019-05-02T23:53:27.579Z,99.99
2019-05-02T23:54:27.572Z,99.99
2019-05-02T23:55:27.566Z,99.99
2019-05-02T23:56:27.558Z,99.99
2019-05-02T23:57:27.553Z,99.99
2019-05-02T23:58:27.544Z,99.99
2019-05-02T23:59:27.539Z,99.99
